sensor_id;sensor_type;location;lat;lon;timestamp;pressure;altitude;pressure_sealevel;temperature;humidity
72336;BME280;65062;48.446;8.834;2022-12-07T00:01:03;97568.41;;;2.84;88.44
72336;BME280;65062;48.446;8.834;2022-12-07T00:04:05;97569.63;;;2.89;88.66
72336;BME280;65062;48.446;8.834;2022-12-07T00:07:05;97568.28;;;2.85;88.29
72336;BME280;65062;48.446;8.834;2022-12-07T00:10:06;97564.59;;;2.88;88.15
72336;BME280;65062;48.446;8.834;2022-12-07T00:13:07;97566.78;;;2.92;88.04
72336;BME280;65062;48.446;8.834;2022-12-07T00:16:18;97566.22;;;2.89;87.82
72336;BME280;65062;48.446;8.834;2022-12-07T00:19:18;97564.47;;;2.89;88.42
72336;BME280;65062;48.446;8.834;2022-12-07T00:22:19;97559.28;;;2.89;87.92
72336;BME280;65062;48.446;8.834;2022-12-07T00:25:20;97563.38;;;2.92;87.40
72336;BME280;65062;48.446;8.834;2022-12-07T00:28:20;97559.81;;;2.93;87.50
72336;BME280;65062;48.446;8.834;2022-12-07T00:31:23;97558.34;;;2.90;87.30
72336;BME280;65062;48.446;8.834;2022-12-07T00:34:23;97555.88;;;2.89;87.70
72336;BME280;65062;48.446;8.834;2022-12-07T00:37:24;97553.03;;;2.92;88.32
72336;BME280;65062;48.446;8.834;2022-12-07T00:40:24;97556.44;;;2.92;88.16
72336;BME280;65062;48.446;8.834;2022-12-07T00:43:24;97547.47;;;3.06;88.13
72336;BME280;65062;48.446;8.834;2022-12-07T00:46:25;97547.19;;;2.99;87.40
72336;BME280;65062;48.446;8.834;2022-12-07T00:49:25;97543.38;;;2.94;87.64
72336;BME280;65062;48.446;8.834;2022-12-07T00:52:26;97548.28;;;2.97;87.50
72336;BME280;65062;48.446;8.834;2022-12-07T00:55:26;97547.59;;;2.95;88.18
72336;BME280;65062;48.446;8.834;2022-12-07T00:58:26;97550.03;;;2.96;87.87
72336;BME280;65062;48.446;8.834;2022-12-07T01:01:30;97548.13;;;2.98;86.70
72336;BME280;65062;48.446;8.834;2022-12-07T01:04:33;97548.56;;;2.94;87.06
72336;BME280;65062;48.446;8.834;2022-12-07T01:07:34;97550.03;;;2.96;87.26
72336;BME280;65062;48.446;8.834;2022-12-07T01:10:34;97547.84;;;2.92;87.04
72336;BME280;65062;48.446;8.834;2022-12-07T01:13:35;97545.28;;;2.82;87.33
72336;BME280;65062;48.446;8.834;2022-12-07T01:16:36;97543.63;;;2.81;87.75
72336;BME280;65062;48.446;8.834;2022-12-07T01:19:38;97548.94;;;2.80;87.79
72336;BME280;65062;48.446;8.834;2022-12-07T01:22:39;97555.06;;;2.79;87.74
72336;BME280;65062;48.446;8.834;2022-12-07T01:25:40;97551.53;;;2.80;87.91
72336;BME280;65062;48.446;8.834;2022-12-07T01:28:41;97548.81;;;2.81;88.48
72336;BME280;65062;48.446;8.834;2022-12-07T01:31:41;97550.59;;;2.81;88.51
72336;BME280;65062;48.446;8.834;2022-12-07T01:34:42;97553.84;;;2.83;88.52
72336;BME280;65062;48.446;8.834;2022-12-07T01:37:42;97552.78;;;2.85;87.99
72336;BME280;65062;48.446;8.834;2022-12-07T01:40:42;97552.38;;;2.90;88.38
72336;BME280;65062;48.446;8.834;2022-12-07T01:47:11;97559.28;;;2.80;88.35
72336;BME280;65062;48.446;8.834;2022-12-07T01:50:12;97560.25;;;2.79;88.50
72336;BME280;65062;48.446;8.834;2022-12-07T01:53:13;97554.13;;;2.80;89.20
72336;BME280;65062;48.446;8.834;2022-12-07T01:56:17;97554.66;;;2.93;88.60
72336;BME280;65062;48.446;8.834;2022-12-07T01:59:22;97557.94;;;2.85;88.19
72336;BME280;65062;48.446;8.834;2022-12-07T02:02:28;97553.31;;;2.79;88.26
72336;BME280;65062;48.446;8.834;2022-12-07T02:05:33;97558.47;;;2.70;89.02
72336;BME280;65062;48.446;8.834;2022-12-07T02:08:34;97561.47;;;2.75;89.07
72336;BME280;65062;48.446;8.834;2022-12-07T02:11:35;97561.75;;;2.72;88.99
72336;BME280;65062;48.446;8.834;2022-12-07T02:14:35;97560.91;;;2.71;89.40
72336;BME280;65062;48.446;8.834;2022-12-07T02:31:08;97563.63;;;2.60;89.33
72336;BME280;65062;48.446;8.834;2022-12-07T02:34:19;97551.00;;;2.57;89.45
72336;BME280;65062;48.446;8.834;2022-12-07T02:37:32;97551.94;;;2.47;89.87
72336;BME280;65062;48.446;8.834;2022-12-07T02:40:43;97551.78;;;2.48;90.07
72336;BME280;65062;48.446;8.834;2022-12-07T02:44:03;97561.44;;;2.46;90.08
72336;BME280;65062;48.446;8.834;2022-12-07T02:47:09;97568.09;;;2.49;89.94
72336;BME280;65062;48.446;8.834;2022-12-07T02:50:11;97561.84;;;2.51;90.27
72336;BME280;65062;48.446;8.834;2022-12-07T02:53:38;97558.44;;;2.51;90.13
72336;BME280;65062;48.446;8.834;2022-12-07T02:56:49;97557.50;;;2.52;90.53
72336;BME280;65062;48.446;8.834;2022-12-07T03:03:04;97557.09;;;2.56;91.07
72336;BME280;65062;48.446;8.834;2022-12-07T03:06:22;97550.72;;;2.70;90.46
72336;BME280;65062;48.446;8.834;2022-12-07T03:09:35;97550.72;;;2.70;90.11
72336;BME280;65062;48.446;8.834;2022-12-07T03:12:47;97555.06;;;2.69;90.04
72336;BME280;65062;48.446;8.834;2022-12-07T03:19:09;97550.06;;;2.68;90.37
72336;BME280;65062;48.446;8.834;2022-12-07T03:22:13;97554.91;;;2.71;89.64
72336;BME280;65062;48.446;8.834;2022-12-07T03:25:16;97547.59;;;2.76;89.80
72336;BME280;65062;48.446;8.834;2022-12-07T03:28:18;97538.34;;;2.64;89.60
72336;BME280;65062;48.446;8.834;2022-12-07T03:31:26;97536.84;;;2.61;90.01
72336;BME280;65062;48.446;8.834;2022-12-07T03:34:46;97537.50;;;2.54;89.87
72336;BME280;65062;48.446;8.834;2022-12-07T03:38:15;97536.41;;;2.56;90.61
72336;BME280;65062;48.446;8.834;2022-12-07T03:41:27;97542.00;;;2.52;90.72
72336;BME280;65062;48.446;8.834;2022-12-07T03:44:28;97527.75;;;2.57;89.56
72336;BME280;65062;48.446;8.834;2022-12-07T03:54:09;97538.84;;;2.29;90.08
72336;BME280;65062;48.446;8.834;2022-12-07T03:57:11;97538.16;;;2.27;90.60
72336;BME280;65062;48.446;8.834;2022-12-07T04:00:13;97533.13;;;2.26;89.55
72336;BME280;65062;48.446;8.834;2022-12-07T04:03:13;97540.03;;;2.15;90.48
72336;BME280;65062;48.446;8.834;2022-12-07T04:06:14;97540.72;;;2.27;90.00
72336;BME280;65062;48.446;8.834;2022-12-07T04:09:14;97542.09;;;2.22;89.79
72336;BME280;65062;48.446;8.834;2022-12-07T04:12:15;97544.22;;;2.07;90.11
72336;BME280;65062;48.446;8.834;2022-12-07T04:15:15;97535.53;;;2.08;90.92
72336;BME280;65062;48.446;8.834;2022-12-07T04:18:16;97534.19;;;2.13;90.69
72336;BME280;65062;48.446;8.834;2022-12-07T04:21:16;97533.78;;;2.08;90.91
72336;BME280;65062;48.446;8.834;2022-12-07T04:24:16;97535.09;;;2.03;91.01
72336;BME280;65062;48.446;8.834;2022-12-07T04:27:17;97520.44;;;2.03;91.25
72336;BME280;65062;48.446;8.834;2022-12-07T04:30:17;97515.66;;;1.99;91.45
72336;BME280;65062;48.446;8.834;2022-12-07T04:33:18;97530.63;;;2.05;91.56
72336;BME280;65062;48.446;8.834;2022-12-07T04:36:18;97524.13;;;2.10;90.39
72336;BME280;65062;48.446;8.834;2022-12-07T04:39:30;97529.94;;;2.03;91.04
72336;BME280;65062;48.446;8.834;2022-12-07T04:42:31;97527.22;;;1.95;90.91
72336;BME280;65062;48.446;8.834;2022-12-07T04:45:31;97526.00;;;1.99;90.93
72336;BME280;65062;48.446;8.834;2022-12-07T04:48:32;97523.03;;;2.03;90.73
72336;BME280;65062;48.446;8.834;2022-12-07T04:51:32;97525.19;;;1.98;90.80
72336;BME280;65062;48.446;8.834;2022-12-07T04:54:32;97529.09;;;1.83;91.17
72336;BME280;65062;48.446;8.834;2022-12-07T04:57:33;97528.81;;;1.86;91.53
72336;BME280;65062;48.446;8.834;2022-12-07T05:00:33;97524.31;;;1.79;91.47
72336;BME280;65062;48.446;8.834;2022-12-07T05:03:33;97526.50;;;1.83;91.17
72336;BME280;65062;48.446;8.834;2022-12-07T05:06:34;97526.50;;;1.93;90.92
72336;BME280;65062;48.446;8.834;2022-12-07T05:09:34;97520.09;;;1.78;91.30
72336;BME280;65062;48.446;8.834;2022-12-07T05:12:35;97519.22;;;1.58;91.54
72336;BME280;65062;48.446;8.834;2022-12-07T05:15:35;97527.41;;;1.43;91.84
72336;BME280;65062;48.446;8.834;2022-12-07T05:18:35;97531.06;;;1.40;92.26
72336;BME280;65062;48.446;8.834;2022-12-07T05:21:36;97526.91;;;1.28;91.91
72336;BME280;65062;48.446;8.834;2022-12-07T05:24:36;97519.44;;;1.25;91.76
72336;BME280;65062;48.446;8.834;2022-12-07T05:27:37;97516.06;;;1.04;91.42
72336;BME280;65062;48.446;8.834;2022-12-07T05:30:37;97517.34;;;0.78;91.10
72336;BME280;65062;48.446;8.834;2022-12-07T05:33:37;97518.22;;;0.68;91.35
72336;BME280;65062;48.446;8.834;2022-12-07T05:36:38;97517.78;;;0.31;91.39
72336;BME280;65062;48.446;8.834;2022-12-07T05:39:38;97520.41;;;0.09;91.95
72336;BME280;65062;48.446;8.834;2022-12-07T05:42:41;97515.19;;;-0.12;91.78
72336;BME280;65062;48.446;8.834;2022-12-07T05:45:42;97512.63;;;-0.34;92.21
72336;BME280;65062;48.446;8.834;2022-12-07T05:48:42;97522.34;;;-0.26;93.47
72336;BME280;65062;48.446;8.834;2022-12-07T05:51:42;97521.16;;;0.00;93.12
72336;BME280;65062;48.446;8.834;2022-12-07T05:54:43;97520.06;;;0.14;93.62
72336;BME280;65062;48.446;8.834;2022-12-07T05:57:43;97523.56;;;0.13;94.06
72336;BME280;65062;48.446;8.834;2022-12-07T06:01:04;97520.53;;;0.19;93.44
72336;BME280;65062;48.446;8.834;2022-12-07T06:04:04;97511.31;;;0.16;93.80
72336;BME280;65062;48.446;8.834;2022-12-07T06:07:05;97512.03;;;0.07;93.53
72336;BME280;65062;48.446;8.834;2022-12-07T06:10:06;97518.00;;;-0.04;93.59
72336;BME280;65062;48.446;8.834;2022-12-07T06:13:06;97513.56;;;-0.02;93.71
72336;BME280;65062;48.446;8.834;2022-12-07T06:16:07;97515.38;;;0.08;94.12
72336;BME280;65062;48.446;8.834;2022-12-07T06:19:07;97513.28;;;0.13;94.31
72336;BME280;65062;48.446;8.834;2022-12-07T06:22:08;97514.78;;;0.15;94.71
72336;BME280;65062;48.446;8.834;2022-12-07T06:25:10;97521.09;;;0.22;95.15
72336;BME280;65062;48.446;8.834;2022-12-07T06:28:11;97532.09;;;0.24;94.98
72336;BME280;65062;48.446;8.834;2022-12-07T06:31:11;97533.03;;;0.23;94.66
72336;BME280;65062;48.446;8.834;2022-12-07T06:34:15;97530.63;;;0.42;94.31
72336;BME280;65062;48.446;8.834;2022-12-07T06:37:16;97529.03;;;0.30;94.15
72336;BME280;65062;48.446;8.834;2022-12-07T06:40:16;97541.66;;;0.33;94.86
72336;BME280;65062;48.446;8.834;2022-12-07T06:43:17;97536.97;;;0.38;94.32
72336;BME280;65062;48.446;8.834;2022-12-07T06:46:17;97536.03;;;0.28;94.31
72336;BME280;65062;48.446;8.834;2022-12-07T06:49:18;97543.75;;;0.28;93.36
72336;BME280;65062;48.446;8.834;2022-12-07T06:52:18;97541.59;;;0.13;93.92
72336;BME280;65062;48.446;8.834;2022-12-07T06:55:19;97545.78;;;0.14;94.09
72336;BME280;65062;48.446;8.834;2022-12-07T06:58:19;97535.59;;;0.23;94.24
72336;BME280;65062;48.446;8.834;2022-12-07T07:01:19;97541.53;;;0.24;94.46
72336;BME280;65062;48.446;8.834;2022-12-07T07:04:20;97544.94;;;0.24;95.03
72336;BME280;65062;48.446;8.834;2022-12-07T07:07:20;97548.59;;;0.22;94.29
72336;BME280;65062;48.446;8.834;2022-12-07T07:10:20;97553.97;;;0.19;94.02
72336;BME280;65062;48.446;8.834;2022-12-07T07:13:21;97558.53;;;0.15;94.15
72336;BME280;65062;48.446;8.834;2022-12-07T07:16:21;97563.66;;;0.26;93.85
72336;BME280;65062;48.446;8.834;2022-12-07T07:19:21;97558.41;;;0.17;93.67
72336;BME280;65062;48.446;8.834;2022-12-07T07:22:22;97563.66;;;0.26;94.18
72336;BME280;65062;48.446;8.834;2022-12-07T07:25:22;97573.25;;;0.35;94.06
72336;BME280;65062;48.446;8.834;2022-12-07T07:28:23;97580.09;;;0.46;94.74
72336;BME280;65062;48.446;8.834;2022-12-07T07:31:23;97589.13;;;0.51;93.94
72336;BME280;65062;48.446;8.834;2022-12-07T07:34:23;97573.88;;;0.59;93.63
72336;BME280;65062;48.446;8.834;2022-12-07T07:37:24;97576.91;;;0.53;93.34
72336;BME280;65062;48.446;8.834;2022-12-07T07:40:24;97577.75;;;0.54;92.61
72336;BME280;65062;48.446;8.834;2022-12-07T07:43:25;97573.06;;;0.59;93.05
72336;BME280;65062;48.446;8.834;2022-12-07T07:46:25;97576.78;;;0.66;93.38
72336;BME280;65062;48.446;8.834;2022-12-07T07:49:26;97576.53;;;0.69;93.05
72336;BME280;65062;48.446;8.834;2022-12-07T07:52:26;97580.97;;;0.78;93.10
72336;BME280;65062;48.446;8.834;2022-12-07T07:55:27;97585.63;;;0.84;93.53
72336;BME280;65062;48.446;8.834;2022-12-07T07:58:27;97579.94;;;0.90;92.81
72336;BME280;65062;48.446;8.834;2022-12-07T08:01:27;97586.56;;;1.03;92.86
72336;BME280;65062;48.446;8.834;2022-12-07T08:04:28;97579.53;;;1.05;92.62
72336;BME280;65062;48.446;8.834;2022-12-07T08:07:28;97588.16;;;1.15;92.80
72336;BME280;65062;48.446;8.834;2022-12-07T08:10:29;97580.63;;;1.23;92.18
72336;BME280;65062;48.446;8.834;2022-12-07T08:13:29;97588.03;;;1.37;91.88
72336;BME280;65062;48.446;8.834;2022-12-07T08:16:30;97593.63;;;1.42;91.41
72336;BME280;65062;48.446;8.834;2022-12-07T08:19:30;97591.09;;;1.31;91.40
72336;BME280;65062;48.446;8.834;2022-12-07T08:22:30;97585.06;;;1.42;91.50
72336;BME280;65062;48.446;8.834;2022-12-07T08:25:33;97591.47;;;1.47;91.40
72336;BME280;65062;48.446;8.834;2022-12-07T08:28:33;97585.19;;;1.61;90.67
72336;BME280;65062;48.446;8.834;2022-12-07T08:31:34;97590.03;;;1.75;90.38
72336;BME280;65062;48.446;8.834;2022-12-07T08:34:34;97588.41;;;1.83;90.10
72336;BME280;65062;48.446;8.834;2022-12-07T08:37:36;97593.34;;;1.96;90.05
72336;BME280;65062;48.446;8.834;2022-12-07T08:40:36;97590.13;;;2.03;89.61
72336;BME280;65062;48.446;8.834;2022-12-07T08:43:37;97587.59;;;2.13;89.11
72336;BME280;65062;48.446;8.834;2022-12-07T08:46:46;97592.31;;;2.08;88.38
72336;BME280;65062;48.446;8.834;2022-12-07T08:49:49;97587.72;;;2.21;87.57
72336;BME280;65062;48.446;8.834;2022-12-07T08:52:54;97584.66;;;2.37;87.76
72336;BME280;65062;48.446;8.834;2022-12-07T08:55:55;97586.28;;;2.38;87.98
72336;BME280;65062;48.446;8.834;2022-12-07T08:58:57;97582.78;;;2.48;87.88
72336;BME280;65062;48.446;8.834;2022-12-07T09:01:57;97580.75;;;2.61;87.58
72336;BME280;65062;48.446;8.834;2022-12-07T09:04:58;97586.63;;;2.73;87.66
72336;BME280;65062;48.446;8.834;2022-12-07T09:08:00;97578.19;;;2.71;87.00
72336;BME280;65062;48.446;8.834;2022-12-07T09:11:01;97583.53;;;2.88;86.90
72336;BME280;65062;48.446;8.834;2022-12-07T09:14:02;97576.69;;;3.06;85.84
72336;BME280;65062;48.446;8.834;2022-12-07T09:17:10;97581.19;;;3.23;82.76
72336;BME280;65062;48.446;8.834;2022-12-07T09:20:11;97572.75;;;3.21;81.58
72336;BME280;65062;48.446;8.834;2022-12-07T09:23:12;97575.19;;;3.32;82.51
72336;BME280;65062;48.446;8.834;2022-12-07T09:26:12;97577.75;;;3.42;82.23
72336;BME280;65062;48.446;8.834;2022-12-07T09:29:13;97577.88;;;3.50;82.73
72336;BME280;65062;48.446;8.834;2022-12-07T09:32:13;97578.91;;;3.66;81.69
72336;BME280;65062;48.446;8.834;2022-12-07T09:35:13;97571.34;;;3.82;81.25
72336;BME280;65062;48.446;8.834;2022-12-07T09:38:14;97586.66;;;3.76;81.56
72336;BME280;65062;48.446;8.834;2022-12-07T09:41:15;97570.56;;;3.82;80.86
72336;BME280;65062;48.446;8.834;2022-12-07T09:44:24;97583.28;;;4.02;82.04
72336;BME280;65062;48.446;8.834;2022-12-07T09:47:26;97574.38;;;4.14;80.79
72336;BME280;65062;48.446;8.834;2022-12-07T09:50:28;97574.81;;;4.10;80.56
72336;BME280;65062;48.446;8.834;2022-12-07T09:53:33;97567.88;;;4.28;78.72
72336;BME280;65062;48.446;8.834;2022-12-07T09:56:35;97565.75;;;4.23;78.92
72336;BME280;65062;48.446;8.834;2022-12-07T09:59:36;97558.94;;;4.22;77.74
72336;BME280;65062;48.446;8.834;2022-12-07T10:02:38;97548.88;;;4.37;79.03
72336;BME280;65062;48.446;8.834;2022-12-07T10:05:48;97554.53;;;4.50;77.49
72336;BME280;65062;48.446;8.834;2022-12-07T10:08:49;97547.22;;;4.46;77.44
72336;BME280;65062;48.446;8.834;2022-12-07T10:12:08;97547.00;;;4.57;77.39
72336;BME280;65062;48.446;8.834;2022-12-07T10:15:09;97539.53;;;4.89;74.07
72336;BME280;65062;48.446;8.834;2022-12-07T10:21:26;97534.31;;;5.06;70.36
72336;BME280;65062;48.446;8.834;2022-12-07T10:24:27;97528.22;;;4.90;72.93
72336;BME280;65062;48.446;8.834;2022-12-07T10:27:31;97527.88;;;5.10;73.81
72336;BME280;65062;48.446;8.834;2022-12-07T10:30:32;97524.97;;;5.31;73.79
72336;BME280;65062;48.446;8.834;2022-12-07T10:33:38;97529.94;;;5.50;71.50
72336;BME280;65062;48.446;8.834;2022-12-07T10:36:38;97523.66;;;5.60;69.21
72336;BME280;65062;48.446;8.834;2022-12-07T10:39:46;97521.38;;;5.32;70.61
72336;BME280;65062;48.446;8.834;2022-12-07T10:43:00;97517.34;;;5.37;72.56
72336;BME280;65062;48.446;8.834;2022-12-07T11:06:21;97483.41;;;5.56;72.43
72336;BME280;65062;48.446;8.834;2022-12-07T11:12:59;97488.44;;;5.83;71.48
72336;BME280;65062;48.446;8.834;2022-12-07T11:16:23;97485.59;;;5.69;70.69
72336;BME280;65062;48.446;8.834;2022-12-07T11:25:54;97474.19;;;5.62;70.14
72336;BME280;65062;48.446;8.834;2022-12-07T11:32:49;97478.44;;;5.71;71.95
72336;BME280;65062;48.446;8.834;2022-12-07T11:35:54;97472.41;;;5.88;68.66
72336;BME280;65062;48.446;8.834;2022-12-07T11:39:01;97468.66;;;5.90;69.74
72336;BME280;65062;48.446;8.834;2022-12-07T11:42:16;97459.41;;;5.88;69.41
72336;BME280;65062;48.446;8.834;2022-12-07T11:45:23;97465.34;;;5.80;68.42
72336;BME280;65062;48.446;8.834;2022-12-07T11:48:35;97450.41;;;5.74;69.84
72336;BME280;65062;48.446;8.834;2022-12-07T11:51:39;97447.75;;;5.58;68.97
72336;BME280;65062;48.446;8.834;2022-12-07T11:54:41;97450.66;;;5.63;70.54
72336;BME280;65062;48.446;8.834;2022-12-07T11:57:45;97446.91;;;5.91;69.72
72336;BME280;65062;48.446;8.834;2022-12-07T12:00:51;97451.00;;;5.94;69.45
72336;BME280;65062;48.446;8.834;2022-12-07T12:07:06;97440.97;;;6.15;65.33
72336;BME280;65062;48.446;8.834;2022-12-07T12:13:54;97434.00;;;6.15;67.10
72336;BME280;65062;48.446;8.834;2022-12-07T12:27:01;97422.03;;;6.47;67.18
72336;BME280;65062;48.446;8.834;2022-12-07T12:30:31;97418.94;;;6.43;64.81
72336;BME280;65062;48.446;8.834;2022-12-07T12:33:33;97418.59;;;6.30;63.44
72336;BME280;65062;48.446;8.834;2022-12-07T12:36:44;97403.28;;;6.11;63.60
72336;BME280;65062;48.446;8.834;2022-12-07T12:43:44;97407.81;;;6.09;64.72
72336;BME280;65062;48.446;8.834;2022-12-07T12:50:18;97403.44;;;5.93;64.48
72336;BME280;65062;48.446;8.834;2022-12-07T12:53:24;97394.19;;;5.99;65.81
72336;BME280;65062;48.446;8.834;2022-12-07T12:56:50;97400.16;;;5.83;65.28
72336;BME280;65062;48.446;8.834;2022-12-07T13:02:54;97390.63;;;5.58;65.40
72336;BME280;65062;48.446;8.834;2022-12-07T13:09:29;97386.50;;;5.81;67.04
72336;BME280;65062;48.446;8.834;2022-12-07T13:12:31;97386.28;;;5.67;66.67
72336;BME280;65062;48.446;8.834;2022-12-07T13:18:37;97377.84;;;5.73;64.54
72336;BME280;65062;48.446;8.834;2022-12-07T13:21:42;97373.00;;;5.78;64.81
72336;BME280;65062;48.446;8.834;2022-12-07T13:24:43;97373.44;;;5.65;64.53
72336;BME280;65062;48.446;8.834;2022-12-07T13:27:48;97373.13;;;5.68;65.53
72336;BME280;65062;48.446;8.834;2022-12-07T13:34:03;97367.78;;;5.70;64.99
72336;BME280;65062;48.446;8.834;2022-12-07T13:37:10;97368.44;;;5.72;64.97
72336;BME280;65062;48.446;8.834;2022-12-07T13:40:21;97364.69;;;5.66;65.24
72336;BME280;65062;48.446;8.834;2022-12-07T13:43:21;97369.50;;;5.53;66.45
72336;BME280;65062;48.446;8.834;2022-12-07T13:46:41;97362.25;;;5.65;66.76
72336;BME280;65062;48.446;8.834;2022-12-07T13:49:49;97353.34;;;5.67;66.27
72336;BME280;65062;48.446;8.834;2022-12-07T13:52:50;97355.91;;;5.59;66.20
72336;BME280;65062;48.446;8.834;2022-12-07T13:55:50;97353.78;;;5.55;68.83
72336;BME280;65062;48.446;8.834;2022-12-07T13:58:51;97348.31;;;5.74;68.99
72336;BME280;65062;48.446;8.834;2022-12-07T14:01:52;97343.47;;;5.79;68.49
72336;BME280;65062;48.446;8.834;2022-12-07T14:05:05;97348.66;;;5.79;68.76
72336;BME280;65062;48.446;8.834;2022-12-07T14:08:22;97352.78;;;5.89;69.21
72336;BME280;65062;48.446;8.834;2022-12-07T14:11:22;97354.25;;;5.92;69.65
72336;BME280;65062;48.446;8.834;2022-12-07T14:14:26;97357.03;;;5.98;69.60
72336;BME280;65062;48.446;8.834;2022-12-07T14:17:28;97349.72;;;5.94;69.43
72336;BME280;65062;48.446;8.834;2022-12-07T14:20:40;97350.50;;;5.86;69.85
72336;BME280;65062;48.446;8.834;2022-12-07T14:23:41;97350.81;;;5.83;68.65
72336;BME280;65062;48.446;8.834;2022-12-07T14:26:43;97353.81;;;5.71;69.70
72336;BME280;65062;48.446;8.834;2022-12-07T14:29:43;97358.78;;;5.82;68.00
72336;BME280;65062;48.446;8.834;2022-12-07T14:32:44;97355.59;;;5.62;68.27
72336;BME280;65062;48.446;8.834;2022-12-07T14:35:48;97351.03;;;5.48;69.21
72336;BME280;65062;48.446;8.834;2022-12-07T14:38:49;97354.09;;;5.44;70.37
72336;BME280;65062;48.446;8.834;2022-12-07T14:41:49;97354.88;;;5.36;71.65
72336;BME280;65062;48.446;8.834;2022-12-07T14:44:53;97353.25;;;5.35;68.20
72336;BME280;65062;48.446;8.834;2022-12-07T14:47:53;97352.66;;;5.16;69.13
72336;BME280;65062;48.446;8.834;2022-12-07T14:50:53;97346.88;;;4.96;71.52
72336;BME280;65062;48.446;8.834;2022-12-07T14:53:54;97345.88;;;4.89;71.25
72336;BME280;65062;48.446;8.834;2022-12-07T14:56:55;97353.28;;;4.84;72.06
72336;BME280;65062;48.446;8.834;2022-12-07T14:59:55;97353.25;;;4.76;73.18
72336;BME280;65062;48.446;8.834;2022-12-07T15:02:56;97362.91;;;4.66;71.60
72336;BME280;65062;48.446;8.834;2022-12-07T15:05:57;97357.75;;;4.66;71.53
72336;BME280;65062;48.446;8.834;2022-12-07T15:08:57;97357.09;;;4.47;69.33
72336;BME280;65062;48.446;8.834;2022-12-07T15:11:57;97360.03;;;4.52;69.57
72336;BME280;65062;48.446;8.834;2022-12-07T15:14:58;97361.75;;;4.43;69.20
72336;BME280;65062;48.446;8.834;2022-12-07T15:17:58;97357.78;;;4.31;71.46
72336;BME280;65062;48.446;8.834;2022-12-07T15:20:58;97357.72;;;4.23;72.73
72336;BME280;65062;48.446;8.834;2022-12-07T15:23:59;97359.34;;;4.24;69.95
72336;BME280;65062;48.446;8.834;2022-12-07T15:26:59;97360.22;;;4.15;70.18
72336;BME280;65062;48.446;8.834;2022-12-07T15:29:59;97356.63;;;4.08;72.21
72336;BME280;65062;48.446;8.834;2022-12-07T15:33:00;97355.66;;;3.91;72.74
72336;BME280;65062;48.446;8.834;2022-12-07T15:36:01;97349.97;;;3.88;71.66
72336;BME280;65062;48.446;8.834;2022-12-07T15:39:02;97355.34;;;3.94;71.66
72336;BME280;65062;48.446;8.834;2022-12-07T15:42:03;97351.00;;;3.77;72.80
72336;BME280;65062;48.446;8.834;2022-12-07T15:45:05;97350.47;;;3.74;75.24
72336;BME280;65062;48.446;8.834;2022-12-07T15:48:06;97360.75;;;3.66;76.88
72336;BME280;65062;48.446;8.834;2022-12-07T15:51:08;97361.31;;;3.60;76.37
72336;BME280;65062;48.446;8.834;2022-12-07T15:54:16;97355.69;;;3.47;77.23
72336;BME280;65062;48.446;8.834;2022-12-07T15:57:18;97359.03;;;3.30;77.00
72336;BME280;65062;48.446;8.834;2022-12-07T16:00:18;97359.31;;;3.27;77.59
72336;BME280;65062;48.446;8.834;2022-12-07T16:03:19;97360.03;;;3.19;78.71
72336;BME280;65062;48.446;8.834;2022-12-07T16:06:19;97358.06;;;3.04;80.05
72336;BME280;65062;48.446;8.834;2022-12-07T16:09:20;97355.19;;;3.07;79.50
72336;BME280;65062;48.446;8.834;2022-12-07T16:12:20;97352.59;;;3.07;80.60
72336;BME280;65062;48.446;8.834;2022-12-07T16:15:21;97348.78;;;3.11;80.11
72336;BME280;65062;48.446;8.834;2022-12-07T16:18:21;97348.25;;;3.07;80.36
72336;BME280;65062;48.446;8.834;2022-12-07T16:21:22;97348.78;;;3.11;80.28
72336;BME280;65062;48.446;8.834;2022-12-07T16:24:22;97344.94;;;3.15;80.17
72336;BME280;65062;48.446;8.834;2022-12-07T16:27:23;97338.81;;;3.16;77.54
72336;BME280;65062;48.446;8.834;2022-12-07T16:30:23;97357.34;;;3.11;77.98
72336;BME280;65062;48.446;8.834;2022-12-07T16:33:24;97346.59;;;3.16;78.86
72336;BME280;65062;48.446;8.834;2022-12-07T16:36:24;97348.50;;;3.14;78.24
72336;BME280;65062;48.446;8.834;2022-12-07T16:39:26;97354.91;;;3.10;77.07
72336;BME280;65062;48.446;8.834;2022-12-07T16:42:26;97351.28;;;3.03;77.85
72336;BME280;65062;48.446;8.834;2022-12-07T16:45:26;97352.25;;;2.92;77.85
72336;BME280;65062;48.446;8.834;2022-12-07T16:48:27;97335.69;;;2.85;78.14
72336;BME280;65062;48.446;8.834;2022-12-07T16:51:28;97344.94;;;2.78;79.41
72336;BME280;65062;48.446;8.834;2022-12-07T16:54:29;97343.59;;;2.74;78.20
72336;BME280;65062;48.446;8.834;2022-12-07T16:57:32;97341.22;;;2.54;79.18
72336;BME280;65062;48.446;8.834;2022-12-07T17:00:33;97339.47;;;2.45;79.79
72336;BME280;65062;48.446;8.834;2022-12-07T17:03:34;97340.84;;;2.39;79.47
72336;BME280;65062;48.446;8.834;2022-12-07T17:06:34;97338.81;;;2.23;80.11
72336;BME280;65062;48.446;8.834;2022-12-07T17:09:34;97333.25;;;2.18;80.63
72336;BME280;65062;48.446;8.834;2022-12-07T17:12:35;97336.66;;;2.09;81.49
72336;BME280;65062;48.446;8.834;2022-12-07T17:15:35;97313.97;;;2.03;81.23
72336;BME280;65062;48.446;8.834;2022-12-07T17:18:35;97329.47;;;1.94;81.12
72336;BME280;65062;48.446;8.834;2022-12-07T17:21:36;97327.97;;;1.91;81.89
72336;BME280;65062;48.446;8.834;2022-12-07T17:24:37;97319.03;;;1.95;81.56
72336;BME280;65062;48.446;8.834;2022-12-07T17:27:37;97322.25;;;1.78;81.89
72336;BME280;65062;48.446;8.834;2022-12-07T17:30:38;97320.34;;;1.71;81.21
72336;BME280;65062;48.446;8.834;2022-12-07T17:33:39;97319.69;;;1.69;81.53
72336;BME280;65062;48.446;8.834;2022-12-07T17:36:40;97315.88;;;1.63;81.68
72336;BME280;65062;48.446;8.834;2022-12-07T17:39:41;97315.19;;;1.42;82.11
72336;BME280;65062;48.446;8.834;2022-12-07T17:42:41;97312.81;;;1.20;82.62
72336;BME280;65062;48.446;8.834;2022-12-07T17:45:47;97309.13;;;1.04;83.94
72336;BME280;65062;48.446;8.834;2022-12-07T17:48:47;97307.81;;;0.79;85.29
72336;BME280;65062;48.446;8.834;2022-12-07T17:51:48;97307.03;;;0.58;85.64
72336;BME280;65062;48.446;8.834;2022-12-07T17:55:07;97309.22;;;0.63;85.12
72336;BME280;65062;48.446;8.834;2022-12-07T17:58:07;97307.66;;;0.21;85.56
72336;BME280;65062;48.446;8.834;2022-12-07T18:01:08;97306.84;;;-0.01;86.31
72336;BME280;65062;48.446;8.834;2022-12-07T18:04:09;97301.25;;;-0.06;87.15